createdAt,value
2022-08-17T00:02:25.875Z,6.63
2022-08-17T00:04:54.136Z,6.65
2022-08-17T00:07:21.246Z,6.78
2022-08-17T00:09:48.246Z,6.68
2022-08-17T00:12:43.513Z,7.18
2022-08-17T00:15:09.180Z,6.03
2022-08-17T00:17:38.184Z,6.05
2022-08-17T00:20:06.474Z,6.70
2022-08-17T00:22:36.325Z,5.72
2022-08-17T00:25:19.912Z,5.68
2022-08-17T00:27:46.799Z,5.93
2022-08-17T00:30:14.250Z,6.70
2022-08-17T00:33:11.612Z,6.78
2022-08-17T00:35:34.705Z,6.18
2022-08-17T00:38:01.548Z,5.28
2022-08-17T00:40:40.765Z,5.93
2022-08-17T00:43:35.055Z,5.82
2022-08-17T00:46:07.119Z,5.88
2022-08-17T00:48:34.463Z,5.47
2022-08-17T00:51:33.384Z,6.28
2022-08-17T00:54:08.253Z,6.65
2022-08-17T00:56:41.686Z,6.45
2022-08-17T00:59:10.461Z,6.35
2022-08-17T01:01:38.849Z,5.93
2022-08-17T01:04:06.679Z,6.00
2022-08-17T01:06:34.336Z,4.90
2022-08-17T01:09:03.401Z,6.53
2022-08-17T01:11:31.660Z,6.28
2022-08-17T01:13:58.510Z,6.32
2022-08-17T01:16:29.136Z,5.95
2022-08-17T01:19:01.821Z,6.13
2022-08-17T01:21:51.703Z,5.80
2022-08-17T01:24:18.567Z,6.60
2022-08-17T01:26:46.248Z,5.70
2022-08-17T01:29:13.828Z,5.53
2022-08-17T01:31:52.231Z,6.40
2022-08-17T01:34:19.770Z,5.85
2022-08-17T01:36:49.382Z,6.28
2022-08-17T01:39:28.461Z,6.63
2022-08-17T01:42:04.481Z,6.32
2022-08-17T01:44:31.705Z,6.57
2022-08-17T01:46:58.476Z,7.13
2022-08-17T01:49:28.006Z,6.40
2022-08-17T01:51:55.298Z,6.25
2022-08-17T01:54:23.197Z,6.47
2022-08-17T01:56:51.456Z,7.00
2022-08-17T01:59:20.376Z,5.78
2022-08-17T02:01:47.923Z,7.07
2022-08-17T02:04:15.821Z,6.22
2022-08-17T02:06:53.573Z,7.57
2022-08-17T02:09:25.520Z,7.10
2022-08-17T02:11:54.707Z,6.97
2022-08-17T02:14:23.317Z,6.85
2022-08-17T02:16:50.154Z,7.50
2022-08-17T02:19:17.767Z,6.43
2022-08-17T02:21:48.394Z,7.25
2022-08-17T02:24:59.410Z,7.35
2022-08-17T02:27:10.346Z,6.82
2022-08-17T02:29:37.535Z,7.20
2022-08-17T02:32:04.931Z,6.78
2022-08-17T02:34:32.352Z,7.70
2022-08-17T02:36:59.411Z,8.30
2022-08-17T02:39:26.442Z,7.82
2022-08-17T02:42:03.943Z,7.93
2022-08-17T02:44:39.965Z,7.78
2022-08-17T02:47:09.389Z,7.85
2022-08-17T02:49:36.960Z,7.45
2022-08-17T02:52:07.924Z,9.38
2022-08-17T02:54:40.688Z,8.73
2022-08-17T02:57:09.812Z,8.60
2022-08-17T02:59:37.719Z,8.05
2022-08-17T03:02:09.663Z,8.45
2022-08-17T03:04:36.605Z,8.25
2022-08-17T03:09:31.574Z,7.68
2022-08-17T03:12:12.889Z,8.57
2022-08-17T03:14:42.032Z,8.20
2022-08-17T03:17:10.257Z,8.35
2022-08-17T03:19:37.707Z,8.90
2022-08-17T03:22:34.707Z,7.93
2022-08-17T03:24:57.165Z,8.20
2022-08-17T03:27:23.979Z,9.07
2022-08-17T03:29:50.739Z,10.38
2022-08-17T03:34:44.429Z,8.93
2022-08-17T03:37:11.348Z,8.73
2022-08-17T03:39:38.457Z,8.88
2022-08-17T03:42:32.314Z,8.50
2022-08-17T03:45:02.007Z,9.20
2022-08-17T03:47:47.311Z,9.10
2022-08-17T03:50:38.446Z,9.25
2022-08-17T03:53:28.941Z,8.88
2022-08-17T03:56:23.937Z,8.73
2022-08-17T03:58:50.973Z,8.60
2022-08-17T04:01:18.071Z,8.32
2022-08-17T04:03:44.890Z,9.48
2022-08-17T04:06:11.740Z,9.02
2022-08-17T04:08:38.626Z,9.27
2022-08-17T04:11:05.513Z,8.50
2022-08-17T04:13:32.295Z,9.18
2022-08-17T04:15:59.884Z,7.95
2022-08-17T04:18:26.747Z,8.50
2022-08-17T04:20:53.619Z,9.00
2022-08-17T04:23:20.482Z,7.70
2022-08-17T04:25:50.497Z,9.13
2022-08-17T04:28:19.655Z,8.02
2022-08-17T04:30:47.780Z,8.32
2022-08-17T04:33:21.793Z,8.63
2022-08-17T04:35:51.155Z,8.07
2022-08-17T04:38:21.181Z,8.40
2022-08-17T04:41:07.485Z,8.27
2022-08-17T04:43:35.593Z,8.63
2022-08-17T04:46:11.820Z,8.35
2022-08-17T04:48:42.566Z,8.18
2022-08-17T04:51:31.295Z,7.68
2022-08-17T04:54:02.274Z,9.45
2022-08-17T04:56:30.048Z,8.68
2022-08-17T04:58:59.871Z,7.80
2022-08-17T05:01:29.150Z,7.75
2022-08-17T05:03:59.147Z,7.85
2022-08-17T05:06:27.509Z,7.07
2022-08-17T05:08:54.884Z,8.05
2022-08-17T05:11:22.677Z,6.57
2022-08-17T05:13:50.277Z,7.20
2022-08-17T05:16:18.483Z,7.18
2022-08-17T05:18:45.569Z,7.25
2022-08-17T05:21:12.620Z,7.22
2022-08-17T05:23:43.111Z,7.40
2022-08-17T05:26:25.937Z,6.63
2022-08-17T05:28:59.614Z,6.68
2022-08-17T05:31:28.584Z,7.63
2022-08-17T05:33:55.544Z,6.05
2022-08-17T05:36:42.691Z,7.65
2022-08-17T05:39:09.090Z,6.80
2022-08-17T05:41:42.846Z,7.00
2022-08-17T05:44:09.627Z,6.90
2022-08-17T05:46:41.690Z,7.07
2022-08-17T05:49:08.755Z,5.88
2022-08-17T05:51:55.462Z,6.75
2022-08-17T05:54:44.493Z,7.13
2022-08-17T05:57:53.706Z,7.47
2022-08-17T06:00:30.801Z,6.70
2022-08-17T06:03:22.247Z,6.43
2022-08-17T06:06:06.920Z,6.63
2022-08-17T06:08:56.935Z,6.80
2022-08-17T06:11:42.307Z,6.53
2022-08-17T06:14:28.340Z,7.30
2022-08-17T06:17:02.280Z,5.80
2022-08-17T06:19:42.308Z,6.43
2022-08-17T06:22:13.397Z,6.50
2022-08-17T06:24:50.072Z,6.20
2022-08-17T06:27:30.185Z,6.60
2022-08-17T06:30:16.280Z,7.40
2022-08-17T06:32:45.911Z,7.30
2022-08-17T06:35:17.230Z,6.15
2022-08-17T06:38:03.963Z,6.93
2022-08-17T06:40:51.807Z,5.83
2022-08-17T06:43:50.487Z,6.68
2022-08-17T06:46:37.623Z,7.10
2022-08-17T06:49:40.672Z,7.60
2022-08-17T06:52:45.316Z,7.00
2022-08-17T06:55:26.427Z,6.78
2022-08-17T06:57:58.966Z,6.85
2022-08-17T07:00:33.646Z,6.50
2022-08-17T07:03:15.340Z,7.05
2022-08-17T07:06:31.434Z,6.80
2022-08-17T07:09:15.756Z,8.18
2022-08-17T07:11:53.129Z,7.40
2022-08-17T07:14:45.748Z,8.00
2022-08-17T07:17:15.838Z,7.90
2022-08-17T07:19:45.484Z,7.07
2022-08-17T07:22:57.530Z,7.20
2022-08-17T07:25:21.335Z,7.45
2022-08-17T07:27:52.706Z,8.05
2022-08-17T07:30:28.767Z,7.03
2022-08-17T07:33:13.467Z,7.50
2022-08-17T07:35:44.901Z,7.60
2022-08-17T07:38:25.370Z,7.85
2022-08-17T07:41:05.333Z,7.05
2022-08-17T07:43:41.210Z,7.53
2022-08-17T07:46:29.740Z,7.68
2022-08-17T07:49:15.958Z,8.15
2022-08-17T07:51:42.635Z,8.05
2022-08-17T07:54:15.718Z,7.38
2022-08-17T07:56:48.058Z,7.30
2022-08-17T07:59:24.136Z,7.25
2022-08-17T08:01:57.811Z,7.87
2022-08-17T08:05:00.158Z,6.82
2022-08-17T08:07:21.095Z,6.07
2022-08-17T08:10:02.687Z,6.63
2022-08-17T08:12:33.408Z,6.32
2022-08-17T08:15:09.684Z,7.38
2022-08-17T08:17:49.511Z,8.43
2022-08-17T08:20:34.922Z,8.07
2022-08-17T08:23:37.268Z,8.20
2022-08-17T08:26:42.331Z,8.10
2022-08-17T08:29:31.245Z,10.00
2022-08-17T08:32:20.428Z,8.32
2022-08-17T08:35:26.888Z,8.80
2022-08-17T08:38:02.330Z,7.93
2022-08-17T08:40:59.355Z,7.97
2022-08-17T08:44:03.705Z,7.85
2022-08-17T08:46:35.282Z,7.53
2022-08-17T08:49:14.617Z,8.48
2022-08-17T08:51:55.528Z,8.57
2022-08-17T08:54:41.260Z,6.10
2022-08-17T08:57:34.720Z,8.75
2022-08-17T09:00:15.417Z,8.02
2022-08-17T09:03:12.050Z,8.25
2022-08-17T09:05:52.713Z,8.48
2022-08-17T09:08:25.428Z,7.50
2022-08-17T09:10:56.757Z,8.35
2022-08-17T09:13:42.275Z,8.93
2022-08-17T09:16:42.287Z,10.32
2022-08-17T09:19:16.846Z,8.35
2022-08-17T09:21:54.447Z,9.68
2022-08-17T09:24:31.086Z,9.50
2022-08-17T09:27:00.837Z,7.32
2022-08-17T09:29:34.978Z,8.98
2022-08-17T09:32:07.457Z,8.32
2022-08-17T09:34:39.822Z,7.15
2022-08-17T09:37:36.679Z,8.47
2022-08-17T09:40:09.548Z,8.00
2022-08-17T09:42:54.699Z,7.30
2022-08-17T09:45:34.499Z,7.35
2022-08-17T09:48:27.519Z,9.35
2022-08-17T09:51:07.054Z,8.55
2022-08-17T09:53:36.988Z,9.82
2022-08-17T09:56:36.325Z,7.65
2022-08-17T09:59:37.109Z,7.93
2022-08-17T10:02:25.152Z,7.72
2022-08-17T10:05:08.747Z,7.53
2022-08-17T10:08:08.538Z,7.30
2022-08-17T10:10:43.437Z,7.97
2022-08-17T10:13:47.140Z,7.47
2022-08-17T10:16:52.088Z,7.43
2022-08-17T10:19:31.945Z,7.75
2022-08-17T10:22:35.120Z,7.00
2022-08-17T10:25:37.635Z,6.43
2022-08-17T10:28:19.919Z,6.35
2022-08-17T10:31:05.294Z,6.55
2022-08-17T10:34:00.486Z,6.53
2022-08-17T10:36:34.036Z,6.43
2022-08-17T10:39:25.328Z,5.72
2022-08-17T10:41:57.835Z,6.22
2022-08-17T10:44:38.076Z,6.28
2022-08-17T10:47:11.571Z,6.45
2022-08-17T10:50:23.409Z,5.85
2022-08-17T10:52:50.368Z,7.05
2022-08-17T10:55:19.043Z,6.75
2022-08-17T10:57:50.143Z,7.32
2022-08-17T11:00:28.399Z,7.53
2022-08-17T11:03:00.133Z,6.95
2022-08-17T11:05:44.145Z,8.15
2022-08-17T11:08:38.419Z,7.28
2022-08-17T11:11:38.939Z,7.00
2022-08-17T11:14:52.857Z,7.18
2022-08-17T11:17:19.580Z,7.68
2022-08-17T11:19:58.252Z,7.57
2022-08-17T11:22:46.490Z,6.68
2022-08-17T11:25:20.037Z,6.97
2022-08-17T11:27:53.520Z,6.65
2022-08-17T11:30:44.475Z,6.68
2022-08-17T11:33:52.330Z,6.60
2022-08-17T11:36:33.388Z,6.35
2022-08-17T11:39:25.174Z,5.88
2022-08-17T11:42:16.300Z,6.43
2022-08-17T11:45:19.559Z,5.60
2022-08-17T11:48:36.789Z,4.50
2022-08-17T11:51:25.326Z,5.18
2022-08-17T11:54:14.600Z,5.32
2022-08-17T11:56:50.963Z,4.32
2022-08-17T11:59:32.869Z,4.47
2022-08-17T12:02:02.089Z,4.20
2022-08-17T12:04:33.277Z,4.32
2022-08-17T12:07:12.923Z,4.70
2022-08-17T12:09:43.652Z,5.03
2022-08-17T12:12:29.534Z,3.88
2022-08-17T12:15:12.933Z,4.68
2022-08-17T12:17:42.757Z,4.32
2022-08-17T12:20:24.006Z,4.88
2022-08-17T12:23:06.897Z,4.50
2022-08-17T12:25:46.011Z,5.20
2022-08-17T12:28:29.968Z,4.03
2022-08-17T12:31:02.293Z,4.78
2022-08-17T12:33:29.340Z,4.20
2022-08-17T12:36:05.826Z,4.60
2022-08-17T12:38:36.077Z,4.95
2022-08-17T12:41:24.577Z,4.60
2022-08-17T12:44:03.188Z,4.32
2022-08-17T12:46:45.670Z,4.90
2022-08-17T12:49:22.845Z,4.50
2022-08-17T12:51:51.271Z,4.38
2022-08-17T12:54:31.336Z,4.55
2022-08-17T12:57:05.400Z,4.20
2022-08-17T12:59:35.379Z,4.28
2022-08-17T13:02:02.359Z,4.65
2022-08-17T13:04:29.722Z,4.07
2022-08-17T13:06:58.181Z,4.78
2022-08-17T13:09:35.363Z,5.00
2022-08-17T13:12:07.923Z,4.72
2022-08-17T13:14:35.260Z,4.43
2022-08-17T13:17:09.671Z,3.55
2022-08-17T13:19:49.433Z,3.90
2022-08-17T13:22:18.272Z,4.45
2022-08-17T13:24:56.715Z,4.13
2022-08-17T13:27:25.937Z,5.00
2022-08-17T13:29:59.486Z,4.75
2022-08-17T13:32:43.721Z,4.65
2022-08-17T13:35:36.439Z,5.03
2022-08-17T13:38:11.787Z,4.53
2022-08-17T13:40:53.054Z,4.80
2022-08-17T13:43:44.781Z,4.50
2022-08-17T13:46:23.868Z,4.60
2022-08-17T13:49:18.214Z,4.25
2022-08-17T13:51:47.451Z,4.13
2022-08-17T13:54:35.079Z,4.10
2022-08-17T13:57:12.691Z,3.90
2022-08-17T13:59:55.142Z,3.67
2022-08-17T14:02:26.639Z,4.00
2022-08-17T14:04:56.284Z,4.13
2022-08-17T14:07:33.660Z,3.95
2022-08-17T14:10:11.965Z,3.70
2022-08-17T14:12:40.630Z,3.65
2022-08-17T14:15:09.131Z,4.40
2022-08-17T14:17:38.851Z,3.53
2022-08-17T14:20:09.440Z,3.45
2022-08-17T14:22:39.567Z,3.78
2022-08-17T14:25:10.425Z,3.00
2022-08-17T14:27:51.741Z,2.53
2022-08-17T14:30:25.319Z,2.58
2022-08-17T14:32:52.488Z,3.75
2022-08-17T14:35:22.335Z,3.30
2022-08-17T14:37:50.373Z,3.55
2022-08-17T14:40:20.731Z,3.33
2022-08-17T14:42:48.009Z,2.90
2022-08-17T14:45:29.919Z,3.10
2022-08-17T14:48:04.429Z,2.63
2022-08-17T14:50:31.961Z,2.83
2022-08-17T14:53:01.628Z,3.13
2022-08-17T14:55:29.686Z,3.45
2022-08-17T14:57:56.611Z,2.70
2022-08-17T15:00:23.692Z,2.67
2022-08-17T15:02:54.115Z,3.10
2022-08-17T15:05:24.611Z,2.97
2022-08-17T15:07:53.289Z,2.80
2022-08-17T15:10:20.406Z,2.88
2022-08-17T15:12:47.708Z,2.90
2022-08-17T15:15:16.763Z,2.95
2022-08-17T15:17:46.054Z,3.30
2022-08-17T15:20:19.313Z,3.38
2022-08-17T15:22:49.683Z,3.08
2022-08-17T15:25:19.050Z,2.83
2022-08-17T15:27:46.173Z,2.75
2022-08-17T15:30:13.164Z,3.33
2022-08-17T15:32:47.513Z,3.03
2022-08-17T15:35:27.280Z,2.63
2022-08-17T15:38:14.407Z,2.88
2022-08-17T15:40:44.825Z,2.67
2022-08-17T15:43:22.008Z,2.60
2022-08-17T15:46:02.047Z,3.30
2022-08-17T15:48:41.402Z,2.97
2022-08-17T15:51:19.272Z,2.83
2022-08-17T15:53:50.156Z,2.55
2022-08-17T15:56:17.196Z,2.67
2022-08-17T15:58:46.572Z,2.78
2022-08-17T16:01:19.116Z,2.95
2022-08-17T16:04:07.309Z,2.88
2022-08-17T16:06:48.843Z,3.15
2022-08-17T16:09:16.211Z,2.92
2022-08-17T16:11:45.962Z,2.75
2022-08-17T16:14:20.455Z,3.30
2022-08-17T16:16:47.737Z,2.70
2022-08-17T16:19:14.495Z,3.05
2022-08-17T16:21:42.889Z,3.03
2022-08-17T16:24:12.679Z,3.15
2022-08-17T16:26:40.743Z,3.25
2022-08-17T16:29:09.011Z,3.13
2022-08-17T16:31:37.621Z,3.40
2022-08-17T16:34:17.696Z,3.95
2022-08-17T16:36:53.712Z,3.83
2022-08-17T16:39:26.462Z,3.75
2022-08-17T16:41:53.368Z,4.18
2022-08-17T16:44:21.583Z,3.90
2022-08-17T16:46:48.865Z,4.90
2022-08-17T16:49:36.216Z,4.60
2022-08-17T16:52:06.258Z,4.15
2022-08-17T16:54:35.081Z,4.40
2022-08-17T16:57:03.951Z,4.15
2022-08-17T16:59:40.994Z,4.00
2022-08-17T17:02:14.097Z,4.43
2022-08-17T17:05:02.417Z,4.30
2022-08-17T17:08:08.929Z,4.47
2022-08-17T17:10:39.606Z,4.03
2022-08-17T17:13:32.275Z,4.90
2022-08-17T17:16:10.905Z,4.78
2022-08-17T17:18:58.777Z,4.78
2022-08-17T17:21:46.473Z,4.65
2022-08-17T17:24:34.419Z,4.93
2022-08-17T17:27:09.925Z,4.20
2022-08-17T17:29:47.769Z,4.32
2022-08-17T17:32:33.514Z,3.83
2022-08-17T17:35:20.387Z,3.90
2022-08-17T17:37:47.705Z,4.90
2022-08-17T17:40:31.820Z,4.13
2022-08-17T17:43:20.584Z,4.10
2022-08-17T17:46:25.490Z,4.15
2022-08-17T17:48:49.747Z,4.55
2022-08-17T17:52:08.729Z,4.32
2022-08-17T17:54:26.171Z,4.38
2022-08-17T17:57:18.264Z,4.72
2022-08-17T18:00:13.247Z,4.65
2022-08-17T18:02:57.765Z,4.85
2022-08-17T18:05:39.864Z,4.55
2022-08-17T18:08:32.220Z,4.53
2022-08-17T18:11:24.172Z,5.03
2022-08-17T18:14:00.624Z,4.53
2022-08-17T18:16:31.935Z,4.35
2022-08-17T18:18:59.659Z,4.15
2022-08-17T18:21:38.768Z,4.82
2022-08-17T18:24:08.091Z,4.78
2022-08-17T18:26:57.960Z,4.40
2022-08-17T18:29:43.022Z,4.78
2022-08-17T18:32:24.709Z,4.30
2022-08-17T18:35:14.274Z,5.05
2022-08-17T18:37:49.622Z,4.72
2022-08-17T18:40:16.527Z,4.32
2022-08-17T18:42:45.784Z,5.10
2022-08-17T18:45:29.951Z,5.50
2022-08-17T18:47:57.434Z,4.60
2022-08-17T18:50:39.583Z,4.43
2022-08-17T18:53:33.431Z,4.85
2022-08-17T18:56:25.667Z,5.63
2022-08-17T18:59:04.399Z,5.35
2022-08-17T19:02:05.052Z,4.22
2022-08-17T19:04:41.619Z,4.50
2022-08-17T19:07:17.489Z,5.28
2022-08-17T19:09:48.879Z,4.63
2022-08-17T19:12:41.931Z,5.00
2022-08-17T19:15:12.165Z,4.55
2022-08-17T19:18:00.286Z,5.13
2022-08-17T19:20:34.459Z,4.95
2022-08-17T19:23:53.771Z,5.68
2022-08-17T19:26:51.110Z,5.65
2022-08-17T19:29:34.672Z,5.57
2022-08-17T19:32:01.872Z,5.40
2022-08-17T19:34:34.078Z,5.32
2022-08-17T19:37:29.625Z,5.85
2022-08-17T19:40:29.242Z,5.60
2022-08-17T19:43:15.588Z,6.18
2022-08-17T19:46:01.070Z,6.03
2022-08-17T19:49:12.279Z,5.70
2022-08-17T19:51:40.522Z,6.03
2022-08-17T19:54:30.950Z,5.75
2022-08-17T19:57:02.045Z,6.28
2022-08-17T19:59:38.183Z,5.57
2022-08-17T20:02:26.377Z,5.00
2022-08-17T20:04:58.672Z,5.93
2022-08-17T20:08:03.809Z,6.18
2022-08-17T20:10:48.163Z,5.82
2022-08-17T20:13:54.520Z,7.82
2022-08-17T20:16:22.086Z,6.80
2022-08-17T20:19:09.886Z,6.53
2022-08-17T20:21:59.646Z,6.72
2022-08-17T20:24:48.193Z,6.75
2022-08-17T20:27:31.848Z,6.57
2022-08-17T20:30:10.381Z,10.05
2022-08-17T20:32:52.592Z,6.72
2022-08-17T20:35:40.152Z,6.72
2022-08-17T20:40:40.082Z,6.65
2022-08-17T20:43:32.966Z,6.72
2022-08-17T20:46:37.488Z,6.35
2022-08-17T20:49:23.113Z,7.25
2022-08-17T20:52:01.630Z,6.13
2022-08-17T20:54:49.726Z,5.82
2022-08-17T20:57:32.158Z,6.20
2022-08-17T21:00:06.594Z,7.03
2022-08-17T21:02:33.664Z,6.18
2022-08-17T21:05:06.874Z,6.60
2022-08-17T21:07:43.422Z,6.65
2022-08-17T21:10:22.610Z,5.65
2022-08-17T21:13:13.301Z,6.25
2022-08-17T21:15:51.755Z,6.75
2022-08-17T21:18:38.835Z,5.57
2022-08-17T21:21:06.410Z,6.35
2022-08-17T21:23:49.856Z,7.97
2022-08-17T21:26:30.839Z,7.35
2022-08-17T21:29:31.105Z,6.90
2022-08-17T21:31:59.614Z,6.70
2022-08-17T21:34:29.331Z,6.75
2022-08-17T21:37:16.604Z,7.50
2022-08-17T21:39:51.529Z,7.40
2022-08-17T21:42:33.106Z,6.85
2022-08-17T21:45:12.293Z,6.68
2022-08-17T21:47:43.347Z,6.85
2022-08-17T21:50:18.829Z,7.47
2022-08-17T21:52:46.948Z,7.68
2022-08-17T21:55:39.476Z,7.47
2022-08-17T21:58:28.955Z,7.38
2022-08-17T22:01:14.620Z,7.00
2022-08-17T22:03:41.775Z,6.22
2022-08-17T22:06:24.530Z,6.65
2022-08-17T22:09:09.779Z,6.47
2022-08-17T22:12:07.123Z,7.90
2022-08-17T22:14:52.090Z,7.00
2022-08-17T22:17:25.974Z,6.97
2022-08-17T22:20:04.350Z,6.53
2022-08-17T22:23:04.804Z,7.30
2022-08-17T22:25:35.932Z,7.45
2022-08-17T22:28:08.728Z,6.97
2022-08-17T22:30:41.889Z,6.95
2022-08-17T22:33:47.828Z,7.00
2022-08-17T22:36:26.860Z,6.63
2022-08-17T22:39:11.091Z,7.00
2022-08-17T22:41:47.311Z,6.75
2022-08-17T22:44:17.584Z,6.33
2022-08-17T22:47:02.761Z,7.22
2022-08-17T22:49:57.471Z,6.22
2022-08-17T22:52:32.987Z,7.57
2022-08-17T22:55:20.813Z,6.57
2022-08-17T23:00:41.780Z,6.55
2022-08-17T23:03:11.106Z,6.68
2022-08-17T23:05:45.065Z,7.13
2022-08-17T23:08:13.581Z,7.72
2022-08-17T23:10:42.017Z,6.68
2022-08-17T23:13:11.938Z,7.60
2022-08-17T23:15:43.014Z,7.55
2022-08-17T23:18:09.889Z,7.60
2022-08-17T23:20:39.744Z,8.25
2022-08-17T23:23:08.262Z,7.47
2022-08-17T23:25:35.928Z,8.30
2022-08-17T23:28:04.993Z,7.55
2022-08-17T23:30:34.932Z,7.82
2022-08-17T23:33:05.645Z,7.47
2022-08-17T23:35:40.149Z,7.43
2022-08-17T23:38:10.761Z,7.45
2022-08-17T23:40:39.239Z,7.45
2022-08-17T23:43:24.276Z,7.55
2022-08-17T23:46:02.433Z,7.50
2022-08-17T23:48:35.722Z,7.60
2022-08-17T23:51:09.615Z,8.63
2022-08-17T23:53:42.043Z,7.47
2022-08-17T23:56:11.261Z,6.63
2022-08-17T23:58:40.265Z,7.75
